createdAt,value
2023-03-27T00:00:16.838Z,8.40
2023-03-27T00:03:18.802Z,4.23
2023-03-27T00:06:21.076Z,4.70
2023-03-27T00:09:22.800Z,6.83
2023-03-27T00:12:24.481Z,6.33
2023-03-27T00:15:26.240Z,7.73
2023-03-27T00:18:30.823Z,7.37
2023-03-27T00:21:32.546Z,4.50
2023-03-27T00:24:34.581Z,5.70
2023-03-27T00:27:36.366Z,5.70
2023-03-27T00:30:38.029Z,6.33
2023-03-27T00:33:40.127Z,7.23
2023-03-27T00:36:43.752Z,6.10
2023-03-27T00:39:50.103Z,5.17
2023-03-27T00:42:52.102Z,7.60
2023-03-27T00:46:01.404Z,5.03
2023-03-27T00:49:04.869Z,8.57
2023-03-27T00:52:08.479Z,4.30
2023-03-27T00:55:14.273Z,4.10
2023-03-27T00:58:17.853Z,5.87
2023-03-27T01:01:20.548Z,3.50
2023-03-27T01:04:22.271Z,4.27
2023-03-27T01:07:25.417Z,4.43
2023-03-27T01:10:33.230Z,4.67
2023-03-27T01:13:37.739Z,3.40
2023-03-27T01:16:39.490Z,3.03
2023-03-27T01:19:44.631Z,5.03
2023-03-27T01:22:49.310Z,2.07
2023-03-27T01:26:09.798Z,3.70
2023-03-27T01:29:21.454Z,3.10
2023-03-27T01:32:27.417Z,3.47
2023-03-27T01:35:41.117Z,2.77
2023-03-27T01:39:06.150Z,2.67
2023-03-27T01:42:14.285Z,2.93
2023-03-27T01:45:20.404Z,3.60
2023-03-27T01:48:32.903Z,4.73
2023-03-27T01:51:36.642Z,4.17
2023-03-27T01:54:41.201Z,3.07
2023-03-27T01:58:03.293Z,4.90
2023-03-27T02:01:09.695Z,2.07
2023-03-27T02:04:17.179Z,1.70
2023-03-27T02:07:23.127Z,4.30
2023-03-27T02:10:31.282Z,1.47
2023-03-27T02:13:49.050Z,2.87
2023-03-27T02:16:54.309Z,7.17
2023-03-27T02:19:59.702Z,6.70
2023-03-27T02:23:01.985Z,3.33
2023-03-27T02:26:03.759Z,7.00
2023-03-27T02:29:11.981Z,3.90
2023-03-27T02:32:27.431Z,7.73
2023-03-27T02:35:35.638Z,6.30
2023-03-27T02:38:41.484Z,6.43
2023-03-27T02:41:59.705Z,7.13
2023-03-27T02:45:26.515Z,9.30
2023-03-27T02:48:36.416Z,8.17
2023-03-27T02:51:44.087Z,4.83
2023-03-27T02:55:21.363Z,4.93
2023-03-27T02:58:32.358Z,7.00
2023-03-27T03:01:45.363Z,5.67
2023-03-27T03:04:57.814Z,6.47
2023-03-27T03:08:14.749Z,6.27
2023-03-27T03:11:16.665Z,6.10
2023-03-27T03:14:26.364Z,5.17
2023-03-27T03:17:27.994Z,5.97
2023-03-27T03:20:29.778Z,8.43
2023-03-27T03:23:32.033Z,6.37
2023-03-27T03:26:36.554Z,7.13
2023-03-27T03:29:39.942Z,8.17
2023-03-27T03:32:49.716Z,7.13
2023-03-27T03:35:51.818Z,9.67
2023-03-27T03:39:06.410Z,7.13
2023-03-27T03:42:08.621Z,8.33
2023-03-27T03:45:11.283Z,9.00
2023-03-27T03:48:13.057Z,8.53
2023-03-27T03:51:14.670Z,8.57
2023-03-27T03:54:16.323Z,9.83
2023-03-27T03:57:18.903Z,5.93
2023-03-27T04:00:40.226Z,8.67
2023-03-27T04:03:57.917Z,11.93
2023-03-27T04:07:01.395Z,13.53
2023-03-27T04:10:08.820Z,9.17
2023-03-27T04:13:10.721Z,6.50
2023-03-27T04:16:24.881Z,7.63
2023-03-27T04:19:27.875Z,11.10
2023-03-27T04:22:38.251Z,8.00
2023-03-27T04:25:43.257Z,11.10
2023-03-27T04:28:45.827Z,10.80
2023-03-27T04:32:07.410Z,10.97
2023-03-27T04:35:12.437Z,11.63
2023-03-27T04:38:31.785Z,8.27
2023-03-27T04:41:34.651Z,7.23
2023-03-27T04:44:37.719Z,9.37
2023-03-27T04:47:40.137Z,8.10
2023-03-27T04:50:49.348Z,8.13
2023-03-27T04:54:04.815Z,7.87
2023-03-27T04:57:07.729Z,7.83
2023-03-27T05:00:19.652Z,9.90
2023-03-27T05:03:22.304Z,7.73
2023-03-27T05:06:35.335Z,8.93
2023-03-27T05:09:37.713Z,7.47
2023-03-27T05:12:47.652Z,8.77
2023-03-27T05:15:51.023Z,10.07
2023-03-27T05:18:56.020Z,8.67
2023-03-27T05:21:57.970Z,6.83
2023-03-27T05:24:59.691Z,8.07
2023-03-27T05:28:02.957Z,10.80
2023-03-27T05:31:07.614Z,11.70
2023-03-27T05:34:19.276Z,11.17
2023-03-27T05:37:21.930Z,8.53
2023-03-27T05:40:49.695Z,8.90
2023-03-27T05:43:52.569Z,10.03
2023-03-27T05:46:55.537Z,9.20
2023-03-27T05:50:01.703Z,9.80
2023-03-27T05:53:04.694Z,11.07
2023-03-27T05:56:10.661Z,17.17
2023-03-27T05:59:23.707Z,15.30
2023-03-27T06:02:30.286Z,12.00
2023-03-27T06:05:35.856Z,10.87
2023-03-27T06:08:37.996Z,8.90
2023-03-27T06:11:42.944Z,7.43
2023-03-27T06:14:45.323Z,7.57
2023-03-27T06:18:08.227Z,11.40
2023-03-27T06:21:11.714Z,14.40
2023-03-27T06:24:13.906Z,15.37
2023-03-27T06:27:16.880Z,8.50
2023-03-27T06:30:22.680Z,7.43
2023-03-27T06:33:44.291Z,10.07
2023-03-27T06:37:02.759Z,10.60
2023-03-27T06:40:10.570Z,10.53
2023-03-27T06:43:14.255Z,11.17
2023-03-27T06:46:44.677Z,9.57
2023-03-27T06:49:56.874Z,11.40
2023-03-27T06:52:59.497Z,9.60
2023-03-27T06:56:13.671Z,8.63
2023-03-27T06:59:41.536Z,10.50
2023-03-27T07:02:43.443Z,8.40
2023-03-27T07:06:08.560Z,10.07
2023-03-27T07:09:26.117Z,12.67
2023-03-27T07:12:36.604Z,13.03
2023-03-27T07:15:38.799Z,9.97
2023-03-27T07:18:42.105Z,10.63
2023-03-27T07:21:43.954Z,10.37
2023-03-27T07:24:46.846Z,9.27
2023-03-27T07:27:49.440Z,10.73
2023-03-27T07:30:51.198Z,9.50
2023-03-27T07:33:57.996Z,10.57
2023-03-27T07:37:23.280Z,10.03
2023-03-27T07:40:46.812Z,10.97
2023-03-27T07:44:03.694Z,9.53
2023-03-27T07:47:16.619Z,9.57
2023-03-27T07:50:21.665Z,9.43
2023-03-27T07:53:33.250Z,10.67
2023-03-27T07:56:55.044Z,10.20
2023-03-27T08:00:11.697Z,8.20
2023-03-27T08:03:26.175Z,8.83
2023-03-27T08:06:30.529Z,9.57
2023-03-27T08:09:32.277Z,8.87
2023-03-27T08:12:34.589Z,10.63
2023-03-27T08:15:37.038Z,19.53
2023-03-27T08:18:41.251Z,8.47
2023-03-27T08:21:43.302Z,9.80
2023-03-27T08:24:45.114Z,10.10
2023-03-27T08:27:57.114Z,7.20
2023-03-27T08:31:02.806Z,11.67
2023-03-27T08:34:09.297Z,9.73
2023-03-27T08:37:19.121Z,5.53
2023-03-27T08:40:49.156Z,6.47
2023-03-27T08:44:00.248Z,8.27
2023-03-27T08:47:10.702Z,8.03
2023-03-27T08:50:42.422Z,9.67
2023-03-27T08:53:59.174Z,8.13
2023-03-27T08:57:23.940Z,10.40
2023-03-27T09:00:39.554Z,13.53
2023-03-27T09:04:12.778Z,7.97
2023-03-27T09:07:28.087Z,9.87
2023-03-27T09:11:02.185Z,10.30
2023-03-27T09:14:14.061Z,11.83
2023-03-27T09:17:24.068Z,13.93
2023-03-27T09:20:29.265Z,10.77
2023-03-27T09:23:45.547Z,11.43
2023-03-27T09:27:25.862Z,10.80
2023-03-27T09:30:38.355Z,8.47
2023-03-27T09:33:44.843Z,10.63
2023-03-27T09:36:46.721Z,7.87
2023-03-27T09:39:51.526Z,6.83
2023-03-27T09:43:04.106Z,6.60
2023-03-27T09:46:10.165Z,6.77
2023-03-27T09:49:13.548Z,8.03
2023-03-27T09:52:38.022Z,9.13
2023-03-27T09:56:03.357Z,12.20
2023-03-27T09:59:20.889Z,9.53
2023-03-27T10:02:27.310Z,9.13
2023-03-27T10:05:31.849Z,11.07
2023-03-27T10:08:38.940Z,10.97
2023-03-27T10:11:45.421Z,11.83
2023-03-27T10:14:57.164Z,11.00
2023-03-27T10:18:06.691Z,10.47
2023-03-27T10:21:17.097Z,8.30
2023-03-27T10:24:21.789Z,10.07
2023-03-27T10:27:43.732Z,9.77
2023-03-27T10:31:06.653Z,9.43
2023-03-27T10:34:37.853Z,9.63
2023-03-27T10:38:16.166Z,11.53
2023-03-27T10:41:28.316Z,12.63
2023-03-27T10:44:32.410Z,11.67
2023-03-27T10:47:34.241Z,15.23
2023-03-27T10:50:45.821Z,10.53
2023-03-27T10:54:01.885Z,11.10
2023-03-27T10:57:17.255Z,10.73
2023-03-27T11:00:41.065Z,10.60
2023-03-27T11:03:49.459Z,10.17
2023-03-27T11:06:57.314Z,11.23
2023-03-27T11:10:02.809Z,9.80
2023-03-27T11:13:16.607Z,11.03
2023-03-27T11:16:21.982Z,10.80
2023-03-27T11:19:56.690Z,10.37
2023-03-27T11:23:13.056Z,10.53
2023-03-27T11:26:38.396Z,10.53
2023-03-27T11:29:47.564Z,11.07
2023-03-27T11:33:05.130Z,8.47
2023-03-27T11:36:22.856Z,15.83
2023-03-27T11:39:39.827Z,9.50
2023-03-27T11:42:44.258Z,13.37
2023-03-27T11:45:53.408Z,6.77
2023-03-27T11:49:04.489Z,7.43
2023-03-27T11:52:18.146Z,6.40
2023-03-27T11:55:25.007Z,9.20
2023-03-27T11:58:32.408Z,7.60
2023-03-27T12:01:40.134Z,7.03
2023-03-27T12:05:03.969Z,8.00
2023-03-27T12:08:12.210Z,11.60
2023-03-27T12:11:18.706Z,10.67
2023-03-27T12:14:28.242Z,7.57
2023-03-27T12:17:43.095Z,9.67
2023-03-27T12:20:53.038Z,9.60
2023-03-27T12:24:01.427Z,11.00
2023-03-27T12:27:44.807Z,12.87
2023-03-27T12:31:06.663Z,7.33
2023-03-27T12:34:12.157Z,8.13
2023-03-27T12:37:15.733Z,7.40
2023-03-27T12:40:27.206Z,9.80
2023-03-27T12:43:33.766Z,11.73
2023-03-27T12:47:05.705Z,10.77
2023-03-27T12:50:20.218Z,16.83
2023-03-27T12:53:27.692Z,24.63
2023-03-27T12:56:41.227Z,29.50
2023-03-27T12:59:49.139Z,11.47
2023-03-27T13:02:51.229Z,9.50
2023-03-27T13:06:08.472Z,13.43
2023-03-27T13:09:28.724Z,11.13
2023-03-27T13:12:46.545Z,9.53
2023-03-27T13:16:07.567Z,6.70
2023-03-27T13:19:28.424Z,6.00
2023-03-27T13:23:16.641Z,7.67
2023-03-27T13:26:45.199Z,8.43
2023-03-27T13:29:51.846Z,4.87
2023-03-27T13:33:10.015Z,4.90
2023-03-27T13:36:20.910Z,4.90
2023-03-27T13:39:24.891Z,4.60
2023-03-27T13:42:40.162Z,8.13
2023-03-27T13:46:03.002Z,13.70
2023-03-27T13:49:13.628Z,5.70
2023-03-27T13:52:57.393Z,5.53
2023-03-27T13:56:37.157Z,6.07
2023-03-27T13:59:57.161Z,7.10
2023-03-27T14:03:21.956Z,8.20
2023-03-27T14:06:40.329Z,9.13
2023-03-27T14:09:45.511Z,8.37
2023-03-27T14:13:18.212Z,8.87
2023-03-27T14:16:39.109Z,5.23
2023-03-27T14:20:08.191Z,10.70
2023-03-27T14:23:22.489Z,11.70
2023-03-27T14:26:37.920Z,11.50
2023-03-27T14:29:40.254Z,9.57
2023-03-27T14:32:43.343Z,18.07
2023-03-27T14:35:54.244Z,15.97
2023-03-27T14:39:14.163Z,7.20
2023-03-27T14:42:20.648Z,16.37
2023-03-27T14:45:27.616Z,11.50
2023-03-27T14:48:39.401Z,13.80
2023-03-27T14:51:43.040Z,10.37
2023-03-27T14:54:57.524Z,15.10
2023-03-27T14:58:11.288Z,14.77
2023-03-27T15:01:17.298Z,11.67
2023-03-27T15:04:25.270Z,13.37
2023-03-27T15:07:33.306Z,12.90
2023-03-27T15:10:53.423Z,18.87
2023-03-27T15:14:18.511Z,10.43
2023-03-27T15:17:21.051Z,9.33
2023-03-27T15:20:25.330Z,13.03
2023-03-27T15:23:30.087Z,13.03
2023-03-27T15:26:35.168Z,22.80
2023-03-27T15:29:39.390Z,36.23
2023-03-27T15:32:50.438Z,24.20
2023-03-27T15:35:56.457Z,29.63
2023-03-27T15:39:00.692Z,24.97
2023-03-27T15:42:05.660Z,22.37
2023-03-27T15:45:09.538Z,17.93
2023-03-27T15:48:20.509Z,20.27
2023-03-27T15:51:22.151Z,17.77
2023-03-27T15:54:34.396Z,14.73
2023-03-27T15:57:36.135Z,20.63
2023-03-27T16:00:43.852Z,25.73
2023-03-27T16:03:45.845Z,26.20
2023-03-27T16:06:51.332Z,23.97
2023-03-27T16:09:53.292Z,34.27
2023-03-27T16:13:00.951Z,28.47
2023-03-27T16:16:18.941Z,31.70
2023-03-27T16:19:21.340Z,31.07
2023-03-27T16:22:27.858Z,29.67
2023-03-27T16:25:33.014Z,29.57
2023-03-27T16:28:35.396Z,28.73
2023-03-27T16:31:37.419Z,26.93
2023-03-27T16:34:47.832Z,23.77
2023-03-27T16:37:49.609Z,22.63
2023-03-27T16:40:51.640Z,21.13
2023-03-27T16:43:53.433Z,24.40
2023-03-27T16:46:57.781Z,25.93
2023-03-27T16:50:11.411Z,24.37
2023-03-27T16:53:13.604Z,19.73
2023-03-27T16:56:16.030Z,20.27
2023-03-27T16:59:18.197Z,19.00
2023-03-27T17:02:19.811Z,21.57
2023-03-27T17:05:21.531Z,21.33
2023-03-27T17:08:23.209Z,23.47
2023-03-27T17:11:24.894Z,22.83
2023-03-27T17:14:27.174Z,38.43
2023-03-27T17:17:30.453Z,25.70
2023-03-27T17:20:32.291Z,20.67
2023-03-27T17:23:33.977Z,18.73
2023-03-27T17:26:36.600Z,16.73
2023-03-27T17:29:38.327Z,16.47
2023-03-27T17:32:40.162Z,18.97
2023-03-27T17:35:42.284Z,34.60
2023-03-27T17:38:43.968Z,27.23
2023-03-27T17:41:45.716Z,22.03
2023-03-27T17:44:47.466Z,23.87
2023-03-27T17:47:49.183Z,26.50
2023-03-27T17:51:01.535Z,23.23
2023-03-27T17:54:10.097Z,21.27
2023-03-27T17:57:11.835Z,19.43
2023-03-27T18:00:14.232Z,33.17
2023-03-27T18:03:16.798Z,122.67
2023-03-27T18:06:18.690Z,125.37
2023-03-27T18:09:20.756Z,91.63
2023-03-27T18:12:22.885Z,61.77
2023-03-27T18:15:24.698Z,66.53
2023-03-27T18:18:27.043Z,37.40
2023-03-27T18:21:28.749Z,49.90
2023-03-27T18:24:30.716Z,39.10
2023-03-27T18:27:32.729Z,41.63
2023-03-27T18:30:34.611Z,39.17
2023-03-27T18:33:36.668Z,39.37
2023-03-27T18:36:38.376Z,35.83
2023-03-27T18:39:40.051Z,35.27
2023-03-27T18:42:43.962Z,33.37
2023-03-27T18:45:45.711Z,29.53
2023-03-27T18:48:49.177Z,21.20
2023-03-27T18:51:51.296Z,18.50
2023-03-27T18:54:53.206Z,21.23
2023-03-27T18:57:54.912Z,16.53
2023-03-27T19:00:57.304Z,17.20
2023-03-27T19:04:02.171Z,22.33
2023-03-27T19:07:04.075Z,15.87
2023-03-27T19:10:06.612Z,16.03
2023-03-27T19:13:11.011Z,16.57
2023-03-27T19:16:31.409Z,16.50
2023-03-27T19:20:02.542Z,20.00
2023-03-27T19:23:18.529Z,16.80
2023-03-27T19:26:24.470Z,17.00
2023-03-27T19:29:26.469Z,16.30
2023-03-27T19:32:28.751Z,13.27
2023-03-27T19:35:30.492Z,11.33
2023-03-27T19:38:32.414Z,12.47
2023-03-27T19:41:34.351Z,14.20
2023-03-27T19:44:38.063Z,13.03
2023-03-27T19:47:39.790Z,13.87
2023-03-27T19:50:44.048Z,13.07
2023-03-27T19:53:55.562Z,14.60
2023-03-27T19:57:00.018Z,15.97
2023-03-27T20:00:01.665Z,18.90
2023-03-27T20:03:04.633Z,16.50
2023-03-27T20:06:12.947Z,19.03
2023-03-27T20:09:19.918Z,17.53
2023-03-27T20:12:23.236Z,13.60
2023-03-27T20:15:25.191Z,14.07
2023-03-27T20:18:32.746Z,13.90
2023-03-27T20:21:39.063Z,14.20
2023-03-27T20:24:43.296Z,15.20
2023-03-27T20:27:45.338Z,23.37
2023-03-27T20:30:47.243Z,13.07
2023-03-27T20:33:49.922Z,16.33
2023-03-27T20:36:55.640Z,13.03
2023-03-27T20:40:16.360Z,13.50
2023-03-27T20:43:19.528Z,12.63
2023-03-27T20:46:21.189Z,11.87
2023-03-27T20:49:37.618Z,11.93
2023-03-27T20:52:45.042Z,12.47
2023-03-27T20:55:53.388Z,10.97
2023-03-27T20:59:01.765Z,11.77
2023-03-27T21:02:03.986Z,10.70
2023-03-27T21:05:07.245Z,9.93
2023-03-27T21:08:10.769Z,11.63
2023-03-27T21:11:12.537Z,7.87
2023-03-27T21:14:14.219Z,7.50
2023-03-27T21:17:16.058Z,10.63
2023-03-27T21:20:17.916Z,6.37
2023-03-27T21:23:19.716Z,5.80
2023-03-27T21:26:21.423Z,8.67
2023-03-27T21:29:25.186Z,5.13
2023-03-27T21:32:27.152Z,9.10
2023-03-27T21:35:28.890Z,7.80
2023-03-27T21:38:31.009Z,5.13
2023-03-27T21:41:32.764Z,5.70
2023-03-27T21:44:34.451Z,8.20
2023-03-27T21:47:47.119Z,6.70
2023-03-27T21:50:49.424Z,4.60
2023-03-27T21:53:51.236Z,5.43
2023-03-27T21:56:52.886Z,6.80
2023-03-27T21:59:54.615Z,4.70
2023-03-27T22:02:57.157Z,5.93
2023-03-27T22:09:11.493Z,3.83
2023-03-27T22:12:13.425Z,4.47
2023-03-27T22:15:15.065Z,4.50
2023-03-27T22:18:16.699Z,3.87
2023-03-27T22:21:20.092Z,3.30
2023-03-27T22:24:22.049Z,3.60
2023-03-27T22:27:23.716Z,3.77
2023-03-27T22:30:25.696Z,4.10
2023-03-27T22:33:27.384Z,4.67
2023-03-27T22:36:29.077Z,4.37
2023-03-27T22:39:30.731Z,4.40
2023-03-27T22:42:33.017Z,3.83
2023-03-27T22:45:35.572Z,4.40
2023-03-27T22:48:37.194Z,5.00
2023-03-27T22:51:38.897Z,5.57
2023-03-27T22:54:40.655Z,4.27
2023-03-27T22:57:42.379Z,4.60
2023-03-27T23:00:45.922Z,5.30
2023-03-27T23:03:47.784Z,4.93
2023-03-27T23:06:49.533Z,4.63
2023-03-27T23:09:51.568Z,4.50
2023-03-27T23:12:53.116Z,4.97
2023-03-27T23:15:54.886Z,4.60
2023-03-27T23:18:56.707Z,4.10
2023-03-27T23:21:58.444Z,4.03
2023-03-27T23:25:00.181Z,3.77
2023-03-27T23:28:01.836Z,5.90
2023-03-27T23:31:07.740Z,3.37
2023-03-27T23:34:09.491Z,3.43
2023-03-27T23:37:11.160Z,4.97
2023-03-27T23:40:12.814Z,3.30
2023-03-27T23:43:14.445Z,3.50
2023-03-27T23:46:16.518Z,3.53
2023-03-27T23:49:18.293Z,3.37
2023-03-27T23:52:19.978Z,3.47
2023-03-27T23:55:21.595Z,3.30
2023-03-27T23:58:23.645Z,3.50
